LiveATC.Net - Listen to live air traffic control over the Internet! Contact LiveATC.net for advertising information


ICAO: URSS  IATA: AER   Airport: Sochi International Airport
City: Sochi
Country: Russia   Continent: Europe
URSS METAR Weather: URSS 160700Z 27003MPS 9999 BKN110 16/10 Q1016 NOSIG RMK R06/28004MPS QFE761 02000070 06000070
URSS Flight Activity (FlightAware)
URSS Gnd/Twr/App
Feed Status: DOWN
Last heard on: 2014-02-06 04:04:03 (69 days 3 hours 43 minutes ago)
URSS Gnd/Twr/App Audio Archives
FacilityFrequency
Sochi Approach118.300
Sochi Approach119.700
Sochi District (Small Aircraft)118.500
Sochi Start121.200
Sochi Taxi119.000
Sochi Tower124.600


NOTICE

Unauthorized use prohibited. See LiveATC.net Terms of Service


Find LiveATC Audio Streams


Airport/ARTCC Code

Frequency
(e.g., 124.400, 128.75)
Site-wide search

Browse LiveATC Feeds
LiveATC Coverage Map
Top 50 LiveATC Feeds
Bad Weather Areas

LiveATC FAQ
Offer a LiveATC Feed
Contact LiveATC.net
Press Inquiries

LiveATC on iPhone
LiveATC on Android

LiveATC Mobile
(Mobile browser)

ATC Audio Archives
Interesting Recordings

LiveATC Forums


Home Page
About LiveATC.net
Make a Donation
LiveATC Bookstore

Terms of Use
Privacy Policy

ATC/Radar Sites
U.S. ARTCC Freqs
Canadian Air Freqs

AIRMETs/SIGMETs

FAA Airport Status
Nat'l Airspace Status
Arrival Demand Charts


Server Software By:
Icecast.org
Liquidsoap

Please make a donation to help us keep growing!